Time;durP1;ratioP1;P1;durP2;ratioP2;P2;SDS_P1;SDS_P2;PMS_P1;PMS_P2;Temp;Humidity;BMP_temperature;BMP_pressure;BME280_temperature;BME280_humidity;BME280_pressure;Samples;Min_cycle;Max_cycle;Signal;HPM_P1;HPM_P2
2024/02/01 00:00:50;;;;;;;45.10;24.88;;;;;;;;;;5035099;28;20087;-58
2024/02/01 00:03:16;;;;;;;42.38;24.20;;;;;;;;;;5051661;28;20018;-57
2024/02/01 00:05:41;;;;;;;35.50;21.85;;;;;;;;;;5035778;28;20100;-58
2024/02/01 00:08:06;;;;;;;36.35;20.65;;;;;;;;;;5035668;28;20427;-59
2024/02/01 00:10:32;;;;;;;40.60;23.95;;;;;;;;;;5035975;28;20038;-59
2024/02/01 00:12:57;;;;;;;34.95;20.15;;;;;;;;;;5035773;28;20036;-59
2024/02/01 00:15:23;;;;;;;32.33;20.25;;;;;;;;;;5017997;28;20045;-59
2024/02/01 00:17:48;;;;;;;27.02;17.08;;;;;;;;;;5001527;28;20029;-59
2024/02/01 00:20:14;;;;;;;25.58;16.35;;;;;;;;;;5035643;28;20420;-59
2024/02/01 00:22:39;;;;;;;27.88;17.02;;;;;;;;;;5035709;28;20037;-59
2024/02/01 00:25:04;;;;;;;27.13;16.13;;;;;;;;;;5034558;28;20117;-58
2024/02/01 00:27:30;;;;;;;25.10;16.00;;;;;;;;;;5035768;28;20025;-58
2024/02/01 00:29:56;;;;;;;24.58;14.95;;;;;;;;;;5035139;28;20037;-59
2024/02/01 00:32:23;;;;;;;23.42;15.70;;;;;;;;;;5035666;28;20053;-58
2024/02/01 00:34:48;;;;;;;20.63;13.75;;;;;;;;;;5035868;28;20030;-58
2024/02/01 00:37:14;;;;;;;21.27;13.38;;;;;;;;;;5035568;28;20029;-57
2024/02/01 00:39:39;;;;;;;20.70;14.02;;;;;;;;;;5017445;28;20033;-57
2024/02/01 00:42:04;;;;;;;23.75;13.18;;;;;;;;;;5035760;28;20040;-57
2024/02/01 00:44:30;;;;;;;25.83;14.77;;;;;;;;;;5017387;28;20025;-57
2024/02/01 00:46:55;;;;;;;24.55;14.75;;;;;;;;;;5017492;28;20026;-57
2024/02/01 00:49:21;;;;;;;23.98;15.05;;;;;;;;;;5033786;28;20404;-57
2024/02/01 00:51:48;;;;;;;21.27;13.65;;;;;;;;;;5035286;28;20108;-57
2024/02/01 00:54:13;;;;;;;21.58;14.80;;;;;;;;;;5034454;28;20017;-56
2024/02/01 00:56:39;;;;;;;20.08;13.23;;;;;;;;;;5035459;28;20034;-57
2024/02/01 00:59:04;;;;;;;19.38;12.60;;;;;;;;;;5035068;28;20037;-57
2024/02/01 01:01:30;;;;;;;18.33;12.35;;;;;;;;;;5034345;28;20040;-57
2024/02/01 01:03:56;;;;;;;23.65;14.63;;;;;;;;;;5035333;28;20025;-57
2024/02/01 01:06:21;;;;;;;19.02;13.15;;;;;;;;;;5034671;28;20057;-59
2024/02/01 01:08:47;;;;;;;20.40;13.65;;;;;;;;;;5045666;28;20080;-58
2024/02/01 01:11:12;;;;;;;18.83;12.38;;;;;;;;;;5054600;28;20112;-57
2024/02/01 01:13:38;;;;;;;17.75;12.43;;;;;;;;;;5036682;28;20032;-59
2024/02/01 01:16:03;;;;;;;18.20;12.50;;;;;;;;;;5055060;28;20029;-60
2024/02/01 01:18:28;;;;;;;18.45;13.13;;;;;;;;;;5054615;28;20085;-60
2024/02/01 01:20:55;;;;;;;13.25;8.32;;;;;;;;;;5036642;28;20491;-59
2024/02/01 01:23:20;;;;;;;16.17;10.88;;;;;;;;;;5054322;28;20025;-60
2024/02/01 01:25:45;;;;;;;15.38;11.10;;;;;;;;;;5054319;28;20372;-60
2024/02/01 01:28:11;;;;;;;11.48;8.32;;;;;;;;;;5054808;28;20032;-60
2024/02/01 01:30:38;;;;;;;14.95;11.10;;;;;;;;;;5054481;28;20064;-60
2024/02/01 01:33:04;;;;;;;13.32;9.93;;;;;;;;;;5054493;28;20035;-60
2024/02/01 01:35:29;;;;;;;12.50;9.32;;;;;;;;;;5053582;28;20096;-60
2024/02/01 01:37:55;;;;;;;15.40;10.85;;;;;;;;;;5054089;28;20112;-60
2024/02/01 01:40:20;;;;;;;13.07;10.30;;;;;;;;;;5054334;28;20025;-60
2024/02/01 01:42:46;;;;;;;13.18;9.77;;;;;;;;;;5054596;28;20029;-60
2024/02/01 01:45:11;;;;;;;10.10;7.55;;;;;;;;;;5054259;28;20043;-59
2024/02/01 01:47:37;;;;;;;8.00;5.97;;;;;;;;;;5053969;28;20510;-59
2024/02/01 01:50:02;;;;;;;14.55;9.63;;;;;;;;;;5053849;28;20471;-59
2024/02/01 01:52:28;;;;;;;12.30;10.07;;;;;;;;;;5052616;28;20037;-59
2024/02/01 01:54:58;;;;;;;13.32;10.55;;;;;;;;;;5052639;28;20021;-66
2024/02/01 01:57:24;;;;;;;13.40;10.98;;;;;;;;;;5054002;28;20131;-66
2024/02/01 01:59:49;;;;;;;16.15;11.82;;;;;;;;;;5053509;28;20039;-67
2024/02/01 02:02:15;;;;;;;14.60;11.40;;;;;;;;;;5053707;28;20104;-66
2024/02/01 02:04:40;;;;;;;14.27;11.18;;;;;;;;;;5054241;28;20351;-67
2024/02/01 02:07:06;;;;;;;15.60;10.63;;;;;;;;;;5053936;28;20029;-66
2024/02/01 02:09:31;;;;;;;9.82;7.53;;;;;;;;;;5017738;28;20049;-66
2024/02/01 02:11:57;;;;;;;13.48;10.85;;;;;;;;;;5034166;28;20037;-66
2024/02/01 02:14:22;;;;;;;14.38;10.65;;;;;;;;;;5016411;28;20507;-68
2024/02/01 02:16:48;;;;;;;13.98;10.57;;;;;;;;;;5033513;28;20048;-68
2024/02/01 02:19:13;;;;;;;16.45;10.52;;;;;;;;;;5033389;28;20031;-67
2024/02/01 02:21:49;;;;;;;13.75;11.40;;;;;;;;;;5033773;28;20468;-68
2024/02/01 02:24:18;;;;;;;15.75;10.82;;;;;;;;;;5032187;28;20451;-67
2024/02/01 02:26:43;;;;;;;12.57;11.18;;;;;;;;;;5033541;28;20083;-67
2024/02/01 02:29:09;;;;;;;15.93;12.23;;;;;;;;;;5033486;28;20029;-66
2024/02/01 02:31:35;;;;;;;13.50;10.15;;;;;;;;;;5033409;28;20039;-67
2024/02/01 02:34:00;;;;;;;14.27;12.07;;;;;;;;;;5015592;28;20164;-66
2024/02/01 02:36:26;;;;;;;13.05;9.68;;;;;;;;;;5033756;28;20179;-66
2024/02/01 02:38:51;;;;;;;12.98;10.07;;;;;;;;;;5033629;28;20036;-66
2024/02/01 02:41:17;;;;;;;14.70;9.82;;;;;;;;;;5033677;28;20033;-65
2024/02/01 02:43:43;;;;;;;13.52;10.70;;;;;;;;;;5033372;28;20067;-66
2024/02/01 02:46:12;;;;;;;13.57;10.07;;;;;;;;;;5033670;28;20030;-65
2024/02/01 02:48:40;;;;;;;14.05;9.95;;;;;;;;;;5037218;28;20032;-65
2024/02/01 02:51:05;;;;;;;12.45;9.30;;;;;;;;;;5037852;28;20038;-65
2024/02/01 02:53:31;;;;;;;14.80;9.60;;;;;;;;;;5037239;28;20044;-65
2024/02/01 02:55:58;;;;;;;11.27;9.65;;;;;;;;;;5036995;28;20052;-64
2024/02/01 02:58:23;;;;;;;12.35;9.90;;;;;;;;;;5037102;28;20391;-64
2024/02/01 03:00:50;;;;;;;12.18;9.60;;;;;;;;;;5036219;28;20030;-67
2024/02/01 03:03:15;;;;;;;10.75;8.70;;;;;;;;;;5037061;28;20013;-64
2024/02/01 03:05:41;;;;;;;9.85;8.10;;;;;;;;;;5036992;28;20068;-64
2024/02/01 03:08:09;;;;;;;11.90;8.63;;;;;;;;;;5042008;28;20044;-65
2024/02/01 03:10:37;;;;;;;10.07;7.57;;;;;;;;;;5057411;28;20043;-66
2024/02/01 03:13:05;;;;;;;11.60;8.25;;;;;;;;;;5057154;28;20156;-65
2024/02/01 03:15:31;;;;;;;10.40;8.35;;;;;;;;;;5056792;28;20065;-65
2024/02/01 03:17:57;;;;;;;8.40;7.55;;;;;;;;;;5056370;28;20044;-65
2024/02/01 03:20:23;;;;;;;10.20;8.15;;;;;;;;;;5056285;28;20025;-64
2024/02/01 03:22:54;;;;;;;12.85;8.93;;;;;;;;;;5056609;28;20475;-65
2024/02/01 03:25:29;;;;;;;10.15;7.95;;;;;;;;;;5056620;28;20455;-65
2024/02/01 03:28:01;;;;;;;10.68;8.18;;;;;;;;;;5055015;28;20521;-64
2024/02/01 03:30:30;;;;;;;10.32;7.32;;;;;;;;;;5056628;28;20083;-65
2024/02/01 03:32:56;;;;;;;9.65;7.03;;;;;;;;;;5056769;28;20187;-65
2024/02/01 03:35:21;;;;;;;11.15;8.63;;;;;;;;;;5056685;28;20120;-65
2024/02/01 03:37:47;;;;;;;8.77;7.10;;;;;;;;;;5056313;28;20485;-65
2024/02/01 03:40:18;;;;;;;10.50;7.78;;;;;;;;;;5056593;28;20067;-64
2024/02/01 03:42:44;;;;;;;10.85;8.43;;;;;;;;;;5056291;28;20029;-65
2024/02/01 03:45:12;;;;;;;11.30;8.73;;;;;;;;;;5055922;28;20055;-64
2024/02/01 03:47:37;;;;;;;10.75;8.50;;;;;;;;;;5056459;28;20036;-63
2024/02/01 03:50:02;;;;;;;8.98;7.45;;;;;;;;;;5056664;28;20111;-65
2024/02/01 03:52:29;;;;;;;10.30;8.23;;;;;;;;;;5056028;28;20029;-64
2024/02/01 03:54:54;;;;;;;10.25;8.30;;;;;;;;;;5055564;28;20032;-65
2024/02/01 03:57:20;;;;;;;8.98;7.80;;;;;;;;;;5055796;28;20390;-65
2024/02/01 03:59:46;;;;;;;9.23;7.25;;;;;;;;;;5053875;28;20061;-65
2024/02/01 04:02:14;;;;;;;11.77;8.98;;;;;;;;;;5055749;28;20044;-65
2024/02/01 04:04:45;;;;;;;10.00;7.88;;;;;;;;;;5056183;28;20025;-65
2024/02/01 04:07:20;;;;;;;10.70;8.00;;;;;;;;;;5055855;28;20021;-64
2024/02/01 04:09:45;;;;;;;10.10;8.38;;;;;;;;;;5055737;28;20090;-66
2024/02/01 04:12:12;;;;;;;10.20;7.63;;;;;;;;;;5037829;28;20116;-67
2024/02/01 04:14:37;;;;;;;10.30;7.78;;;;;;;;;;5054907;28;20463;-67
2024/02/01 04:17:03;;;;;;;12.30;8.82;;;;;;;;;;5055161;28;20107;-67
2024/02/01 04:19:28;;;;;;;12.20;9.13;;;;;;;;;;5055388;28;20035;-67
2024/02/01 04:21:53;;;;;;;12.20;8.90;;;;;;;;;;5054673;28;20548;-65
2024/02/01 04:24:19;;;;;;;10.32;8.05;;;;;;;;;;5055791;28;20079;-66
2024/02/01 04:26:45;;;;;;;12.63;9.70;;;;;;;;;;5037541;28;20051;-66
2024/02/01 04:29:10;;;;;;;11.35;9.45;;;;;;;;;;5055981;28;20053;-66
2024/02/01 04:31:36;;;;;;;11.80;9.15;;;;;;;;;;5055382;28;20382;-66
2024/02/01 04:34:01;;;;;;;14.75;9.68;;;;;;;;;;5055844;28;20056;-64
2024/02/01 04:36:27;;;;;;;13.73;9.35;;;;;;;;;;5070714;28;20095;-64
2024/02/01 04:38:53;;;;;;;13.23;8.98;;;;;;;;;;5055136;28;20047;-64
2024/02/01 04:41:18;;;;;;;14.30;10.00;;;;;;;;;;5055463;28;20096;-65
2024/02/01 04:43:44;;;;;;;14.73;10.10;;;;;;;;;;5055160;28;20108;-65
2024/02/01 04:46:12;;;;;;;12.32;9.43;;;;;;;;;;5054895;28;20032;-65
2024/02/01 04:48:38;;;;;;;13.68;9.57;;;;;;;;;;5055606;28;20116;-65
2024/02/01 04:51:05;;;;;;;12.95;9.43;;;;;;;;;;5055423;28;20446;-65
2024/02/01 04:53:30;;;;;;;12.77;9.95;;;;;;;;;;5055225;28;20119;-66
2024/02/01 04:55:55;;;;;;;12.25;9.15;;;;;;;;;;5037013;28;20116;-65
2024/02/01 04:58:21;;;;;;;17.00;11.13;;;;;;;;;;5054799;28;20455;-64
2024/02/01 05:00:46;;;;;;;13.93;9.73;;;;;;;;;;5054807;28;20082;-65
2024/02/01 05:03:15;;;;;;;11.65;9.07;;;;;;;;;;5053603;28;20037;-65
2024/02/01 05:05:45;;;;;;;12.57;9.88;;;;;;;;;;5054806;28;20067;-65
2024/02/01 05:08:11;;;;;;;12.68;9.25;;;;;;;;;;5047276;28;20061;-65
2024/02/01 05:10:37;;;;;;;13.65;10.27;;;;;;;;;;5034525;28;20025;-65
2024/02/01 05:13:03;;;;;;;13.27;9.82;;;;;;;;;;5034813;28;20486;-64
2024/02/01 05:15:28;;;;;;;14.20;10.93;;;;;;;;;;5034865;28;20033;-64
2024/02/01 05:17:54;;;;;;;13.82;10.88;;;;;;;;;;5034482;28;20029;-65
2024/02/01 05:20:20;;;;;;;13.98;10.10;;;;;;;;;;5034692;28;20502;-64
2024/02/01 05:22:45;;;;;;;13.65;11.02;;;;;;;;;;5034672;28;20061;-63
2024/02/01 05:25:19;;;;;;;12.35;10.45;;;;;;;;;;5034737;28;20084;-68
2024/02/01 05:27:45;;;;;;;14.70;10.90;;;;;;;;;;5034706;28;20026;-67
2024/02/01 05:30:11;;;;;;;13.05;10.52;;;;;;;;;;5034487;28;20108;-68
2024/02/01 05:32:48;;;;;;;16.77;11.30;;;;;;;;;;5033252;28;20438;-67
2024/02/01 05:35:16;;;;;;;14.40;10.68;;;;;;;;;;5016598;28;20021;-65
2024/02/01 05:37:46;;;;;;;15.35;11.40;;;;;;;;;;5034224;28;20043;-65
2024/02/01 05:40:16;;;;;;;18.92;13.25;;;;;;;;;;5034735;28;20059;-66
2024/02/01 05:42:42;;;;;;;20.25;14.70;;;;;;;;;;5017200;28;20071;-66
2024/02/01 05:45:08;;;;;;;18.13;13.45;;;;;;;;;;5033291;28;20120;-67
2024/02/01 05:47:33;;;;;;;22.65;15.38;;;;;;;;;;5034365;28;20049;-67
2024/02/01 05:49:59;;;;;;;19.95;14.95;;;;;;;;;;5034057;28;20528;-67
2024/02/01 05:52:24;;;;;;;21.23;14.15;;;;;;;;;;5034704;28;20036;-67
2024/02/01 05:54:49;;;;;;;21.58;15.13;;;;;;;;;;5034262;28;20033;-66
2024/02/01 05:57:15;;;;;;;19.80;13.65;;;;;;;;;;5034258;28;20029;-66
2024/02/01 05:59:40;;;;;;;18.65;13.85;;;;;;;;;;5016869;28;20014;-67
2024/02/01 06:02:06;;;;;;;16.77;11.88;;;;;;;;;;5034260;28;20029;-66
2024/02/01 06:04:31;;;;;;;20.30;14.38;;;;;;;;;;5032916;28;20120;-66
2024/02/01 06:06:56;;;;;;;19.80;13.70;;;;;;;;;;5033803;28;20037;-65
2024/02/01 06:09:22;;;;;;;18.95;13.30;;;;;;;;;;5033893;28;20514;-64
2024/02/01 06:11:48;;;;;;;18.77;13.50;;;;;;;;;;5034018;28;20034;-64
2024/02/01 06:14:14;;;;;;;20.75;14.63;;;;;;;;;;5033634;28;20116;-64
2024/02/01 06:16:40;;;;;;;22.75;15.18;;;;;;;;;;5033687;28;20055;-64
2024/02/01 06:19:05;;;;;;;19.77;14.13;;;;;;;;;;5034083;28;20079;-64
2024/02/01 06:21:31;;;;;;;19.00;13.07;;;;;;;;;;5033001;28;20033;-65
2024/02/01 06:23:57;;;;;;;21.27;13.80;;;;;;;;;;5032822;28;20068;-64
2024/02/01 06:26:27;;;;;;;20.88;14.25;;;;;;;;;;5032181;28;20033;-64
2024/02/01 06:28:53;;;;;;;22.95;14.88;;;;;;;;;;5033472;28;20026;-64
2024/02/01 06:31:19;;;;;;;24.63;14.70;;;;;;;;;;5033508;28;20471;-64
2024/02/01 06:33:44;;;;;;;21.85;15.05;;;;;;;;;;5031086;28;20033;-65
2024/02/01 06:36:16;;;;;;;19.45;12.30;;;;;;;;;;5031523;28;20056;-65
2024/02/01 06:41:29;;;;;;;22.75;15.38;;;;;;;;;;5031376;28;20080;-65
2024/02/01 06:49:28;;;;;;;16.30;11.13;;;;;;;;;;5032696;28;20032;-65
2024/02/01 06:52:02;;;;;;;19.88;12.68;;;;;;;;;;5033872;28;20029;-65
2024/02/01 06:54:50;;;;;;;17.30;12.35;;;;;;;;;;5032063;28;20040;-66
2024/02/01 06:57:18;;;;;;;14.82;10.55;;;;;;;;;;5032038;28;20033;-65
2024/02/01 07:02:47;;;;;;;11.48;8.70;;;;;;;;;;5033521;28;20025;-65
2024/02/01 07:05:25;;;;;;;18.20;11.75;;;;;;;;;;5033246;28;20025;-65
2024/02/01 07:07:51;;;;;;;15.30;10.80;;;;;;;;;;5033241;28;20455;-65
2024/02/01 07:10:17;;;;;;;13.27;9.90;;;;;;;;;;5033205;28;20048;-66
2024/02/01 07:12:53;;;;;;;13.77;10.50;;;;;;;;;;5033180;28;20021;-66
2024/02/01 07:17:59;;;;;;;14.82;9.80;;;;;;;;;;5063196;22;20544;-58
2024/02/01 07:20:50;;;;;;;13.75;10.02;;;;;;;;;;5082602;22;20583;-66
2024/02/01 07:26:34;;;;;;;13.77;10.45;;;;;;;;;;5088002;22;20506;-58
2024/02/01 07:59:09;;;;;;;12.93;9.07;;;;;;;;;;5056255;28;20029;-58
2024/02/01 08:01:48;;;;;;;13.43;8.60;;;;;;;;;;5055984;28;20104;-58
2024/02/01 08:04:16;;;;;;;16.88;10.93;;;;;;;;;;5055966;28;20040;-57
2024/02/01 08:09:26;;;;;;;13.50;9.18;;;;;;;;;;5056093;28;20029;-57
2024/02/01 08:11:52;;;;;;;15.60;10.68;;;;;;;;;;5056067;28;20039;-58
2024/02/01 08:14:17;;;;;;;15.82;9.95;;;;;;;;;;5055746;28;20036;-58
2024/02/01 08:16:44;;;;;;;17.15;10.55;;;;;;;;;;5055976;28;20036;-57
2024/02/01 08:19:10;;;;;;;15.23;11.25;;;;;;;;;;5055849;28;20025;-58
2024/02/01 08:21:39;;;;;;;14.95;10.02;;;;;;;;;;5055898;28;20025;-58
2024/02/01 08:24:09;;;;;;;18.15;10.68;;;;;;;;;;5037688;28;20440;-57
2024/02/01 08:26:39;;;;;;;19.23;13.00;;;;;;;;;;5054094;28;20401;-58
2024/02/01 08:29:09;;;;;;;15.23;10.68;;;;;;;;;;5055515;28;20037;-58
2024/02/01 08:31:38;;;;;;;;;;;;;;;;;;5071304;28;20032;-57
2024/02/01 08:34:07;;;;;;;17.60;11.93;;;;;;;;;;5055459;28;20330;-58
2024/02/01 08:36:41;;;;;;;18.10;11.98;;;;;;;;;;5055657;28;20033;-57
2024/02/01 08:39:09;;;;;;;17.23;11.80;;;;;;;;;;5055479;28;20087;-57
2024/02/01 08:41:39;;;;;;;13.15;8.57;;;;;;;;;;5037468;28;20025;-57
2024/02/01 08:44:07;;;;;;;16.52;11.02;;;;;;;;;;5055142;28;20079;-57
2024/02/01 08:46:33;;;;;;;17.40;11.13;;;;;;;;;;5055699;28;20040;-58
2024/02/01 08:48:58;;;;;;;19.48;11.70;;;;;;;;;;5055393;28;20037;-57
2024/02/01 08:51:25;;;;;;;20.35;12.73;;;;;;;;;;5053801;28;20017;-57
2024/02/01 08:53:52;;;;;;;19.33;12.40;;;;;;;;;;5055306;28;20029;-57
2024/02/01 08:56:20;;;;;;;19.23;12.20;;;;;;;;;;5054920;28;20037;-57
2024/02/01 08:58:46;;;;;;;20.73;12.45;;;;;;;;;;5055142;28;20021;-57
2024/02/01 09:01:22;;;;;;;21.10;13.57;;;;;;;;;;5055141;28;20036;-57
2024/02/01 09:03:48;;;;;;;23.52;14.15;;;;;;;;;;5055364;28;20025;-57
2024/02/01 09:06:15;;;;;;;18.63;11.85;;;;;;;;;;5053530;28;20031;-58
2024/02/01 09:08:40;;;;;;;21.38;13.35;;;;;;;;;;5054739;28;20072;-57
2024/02/01 09:11:11;;;;;;;20.77;12.75;;;;;;;;;;5055224;28;20036;-57
2024/02/01 09:13:37;;;;;;;14.02;10.00;;;;;;;;;;5054939;28;20083;-57
2024/02/01 09:16:03;;;;;;;20.60;14.02;;;;;;;;;;5053364;28;20071;-57
2024/02/01 09:18:28;;;;;;;21.20;13.57;;;;;;;;;;5054777;28;20068;-57
2024/02/01 09:20:54;;;;;;;19.33;12.45;;;;;;;;;;5054502;28;20104;-57
2024/02/01 09:23:19;;;;;;;19.80;13.18;;;;;;;;;;5054425;28;20036;-65
2024/02/01 09:25:44;;;;;;;20.23;13.52;;;;;;;;;;5054417;28;20061;-65
2024/02/01 09:28:13;;;;;;;18.38;12.60;;;;;;;;;;5037138;28;20080;-65
2024/02/01 09:30:47;;;;;;;19.08;13.70;;;;;;;;;;5049789;28;20036;-65
2024/02/01 09:33:18;;;;;;;22.30;12.90;;;;;;;;;;5034367;28;20045;-65
2024/02/01 09:35:44;;;;;;;21.67;14.07;;;;;;;;;;5050054;28;20033;-65
2024/02/01 09:38:09;;;;;;;21.63;14.35;;;;;;;;;;5034475;28;20114;-65
2024/02/01 09:40:53;;;;;;;21.00;14.10;;;;;;;;;;5016630;28;20460;-65
2024/02/01 09:43:21;;;;;;;23.77;14.38;;;;;;;;;;5016462;28;20387;-65
2024/02/01 09:45:50;;;;;;;21.08;13.85;;;;;;;;;;5034144;28;20040;-65
2024/02/01 09:48:16;;;;;;;18.65;12.88;;;;;;;;;;5034386;28;20029;-67
2024/02/01 09:50:46;;;;;;;23.92;14.77;;;;;;;;;;5016404;28;20033;-67
2024/02/01 09:53:11;;;;;;;20.05;13.07;;;;;;;;;;5034310;28;20156;-66
2024/02/01 09:55:36;;;;;;;18.67;12.70;;;;;;;;;;5034030;28;20061;-67
2024/02/01 09:58:02;;;;;;;17.25;11.75;;;;;;;;;;5033941;28;20084;-65
2024/02/01 10:00:28;;;;;;;17.30;12.68;;;;;;;;;;5034189;28;20021;-66
2024/02/01 10:02:54;;;;;;;14.15;10.43;;;;;;;;;;5033875;28;20534;-66
2024/02/01 10:05:20;;;;;;;16.90;11.80;;;;;;;;;;5034126;28;20037;-67
2024/02/01 10:07:46;;;;;;;17.40;13.07;;;;;;;;;;5034404;28;20112;-66
2024/02/01 10:10:13;;;;;;;17.88;13.70;;;;;;;;;;5016259;28;20057;-66
2024/02/01 10:12:43;;;;;;;14.93;10.98;;;;;;;;;;5016041;28;20033;-66
2024/02/01 10:15:10;;;;;;;16.98;11.32;;;;;;;;;;5032882;28;20033;-67
2024/02/01 10:17:45;;;;;;;15.32;11.32;;;;;;;;;;5033707;28;20395;-66
2024/02/01 10:20:39;;;;;;;15.02;11.23;;;;;;;;;;5033638;28;20061;-66
2024/02/01 10:23:05;;;;;;;11.25;8.07;;;;;;;;;;5033919;28;20471;-66
2024/02/01 10:25:33;;;;;;;13.63;10.20;;;;;;;;;;5033901;28;20056;-66
2024/02/01 10:28:00;;;;;;;11.82;9.38;;;;;;;;;;5015835;28;20041;-66
2024/02/01 10:30:26;;;;;;;14.63;10.43;;;;;;;;;;5033862;28;20060;-66
2024/02/01 10:32:54;;;;;;;16.65;11.77;;;;;;;;;;5033855;28;20030;-66
2024/02/01 10:35:20;;;;;;;13.85;10.90;;;;;;;;;;5033832;28;20061;-66
2024/02/01 10:37:48;;;;;;;16.40;11.85;;;;;;;;;;5048835;28;20036;-65
2024/02/01 10:40:15;;;;;;;14.43;10.57;;;;;;;;;;5033686;28;20478;-66
2024/02/01 10:42:45;;;;;;;15.18;10.77;;;;;;;;;;5033747;28;20394;-66
2024/02/01 10:45:12;;;;;;;12.45;9.50;;;;;;;;;;5015740;28;20368;-67
2024/02/01 10:47:42;;;;;;;15.60;10.23;;;;;;;;;;5033409;28;20028;-66
2024/02/01 10:50:09;;;;;;;12.88;9.98;;;;;;;;;;5033715;28;20026;-66
2024/02/01 10:52:35;;;;;;;12.13;7.97;;;;;;;;;;5033341;28;20041;-66
2024/02/01 10:55:02;;;;;;;13.88;9.32;;;;;;;;;;5033355;28;20034;-65
2024/02/01 10:57:28;;;;;;;14.82;9.43;;;;;;;;;;5033565;28;20041;-66
2024/02/01 10:59:55;;;;;;;10.10;8.35;;;;;;;;;;5033257;28;20171;-66
2024/02/01 11:02:20;;;;;;;10.38;7.85;;;;;;;;;;5033604;28;20033;-66
2024/02/01 11:04:48;;;;;;;10.18;8.07;;;;;;;;;;5033556;28;20060;-65
2024/02/01 11:07:17;;;;;;;10.63;8.00;;;;;;;;;;5032238;28;20026;-65
2024/02/01 11:09:43;;;;;;;11.02;8.98;;;;;;;;;;5019389;28;20045;-65
2024/02/01 11:12:13;;;;;;;10.65;8.23;;;;;;;;;;5037323;28;20095;-65
2024/02/01 11:14:39;;;;;;;10.75;8.05;;;;;;;;;;5036998;28;20069;-67
2024/02/01 11:17:09;;;;;;;11.95;7.80;;;;;;;;;;5035774;28;20060;-66
2024/02/01 11:19:36;;;;;;;9.68;7.57;;;;;;;;;;5052155;28;20478;-65
2024/02/01 11:22:03;;;;;;;9.23;7.70;;;;;;;;;;5036849;28;20582;-65
2024/02/01 11:24:29;;;;;;;9.05;7.30;;;;;;;;;;5036790;28;20048;-65
2024/02/01 11:26:57;;;;;;;11.25;7.82;;;;;;;;;;5036798;28;20140;-65
2024/02/01 11:29:24;;;;;;;11.85;8.40;;;;;;;;;;5036979;28;20034;-65
2024/02/01 11:31:56;;;;;;;12.27;8.40;;;;;;;;;;5051993;28;20376;-65
2024/02/01 11:34:25;;;;;;;10.13;7.50;;;;;;;;;;5036877;28;20037;-65
2024/02/01 11:36:50;;;;;;;11.00;7.85;;;;;;;;;;5036572;28;20033;-66
2024/02/01 11:39:16;;;;;;;7.28;5.88;;;;;;;;;;5036465;28;20075;-65
2024/02/01 11:41:46;;;;;;;9.40;7.97;;;;;;;;;;5037026;28;20026;-66
2024/02/01 11:44:15;;;;;;;9.18;7.40;;;;;;;;;;5035208;28;20053;-66
2024/02/01 11:46:45;;;;;;;8.90;6.70;;;;;;;;;;5036386;28;20026;-66
2024/02/01 11:49:17;;;;;;;11.60;7.63;;;;;;;;;;5036646;28;20033;-65
2024/02/01 11:51:52;;;;;;;9.98;7.13;;;;;;;;;;5035142;28;20080;-66
2024/02/01 11:54:18;;;;;;;11.90;8.30;;;;;;;;;;5036757;28;20029;-66
2024/02/01 11:56:43;;;;;;;9.27;7.88;;;;;;;;;;5036737;28;20041;-65
2024/02/01 11:59:09;;;;;;;11.75;7.60;;;;;;;;;;5036103;28;20040;-65
2024/02/01 12:01:35;;;;;;;10.95;8.40;;;;;;;;;;5036052;28;20422;-66
2024/02/01 12:04:00;;;;;;;11.13;8.68;;;;;;;;;;5036326;28;20091;-65
2024/02/01 12:06:26;;;;;;;11.70;9.05;;;;;;;;;;5035988;28;20080;-66
2024/02/01 12:08:51;;;;;;;12.02;9.07;;;;;;;;;;5036200;28;20040;-65
2024/02/01 12:11:23;;;;;;;14.10;9.55;;;;;;;;;;5036201;28;20041;-65
2024/02/01 12:13:49;;;;;;;9.38;7.72;;;;;;;;;;5035880;28;20033;-66
2024/02/01 12:16:25;;;;;;;9.15;5.85;;;;;;;;;;5036636;28;20390;-66
2024/02/01 12:18:51;;;;;;;10.70;8.52;;;;;;;;;;5035627;28;20053;-66
2024/02/01 12:21:26;;;;;;;7.70;6.55;;;;;;;;;;5017764;28;20040;-66
2024/02/01 12:23:59;;;;;;;10.63;7.20;;;;;;;;;;5035936;28;20033;-66
2024/02/01 12:26:28;;;;;;;8.20;6.47;;;;;;;;;;5035752;28;20152;-66
2024/02/01 12:28:54;;;;;;;8.80;6.28;;;;;;;;;;5050982;28;20029;-65
2024/02/01 12:31:19;;;;;;;9.02;6.93;;;;;;;;;;5035534;28;20120;-66
2024/02/01 12:33:45;;;;;;;10.18;7.72;;;;;;;;;;5035510;28;20113;-65
2024/02/01 12:36:10;;;;;;;11.93;7.25;;;;;;;;;;5035454;28;20108;-66
2024/02/01 12:38:41;;;;;;;8.82;7.43;;;;;;;;;;5035580;28;20125;-66
2024/02/01 12:41:10;;;;;;;8.95;6.65;;;;;;;;;;5035669;28;20386;-66
2024/02/01 12:43:36;;;;;;;9.35;7.28;;;;;;;;;;5035605;28;20029;-65
2024/02/01 12:46:02;;;;;;;8.93;6.95;;;;;;;;;;5035326;28;20518;-66
2024/02/01 12:48:28;;;;;;;8.75;6.68;;;;;;;;;;5018171;28;20080;-66
2024/02/01 12:50:53;;;;;;;7.97;6.93;;;;;;;;;;5033982;28;20442;-66
2024/02/01 12:53:19;;;;;;;8.23;6.60;;;;;;;;;;5035449;28;20475;-66
2024/02/01 12:55:44;;;;;;;7.68;6.82;;;;;;;;;;5035079;28;20029;-66
2024/02/01 12:58:10;;;;;;;7.72;6.15;;;;;;;;;;5035513;28;20413;-66
2024/02/01 13:00:35;;;;;;;9.85;7.30;;;;;;;;;;5017633;28;20100;-66
2024/02/01 13:03:00;;;;;;;9.82;7.53;;;;;;;;;;5035195;28;20037;-66
2024/02/01 13:05:26;;;;;;;7.50;6.60;;;;;;;;;;5035171;28;20030;-66
2024/02/01 13:07:51;;;;;;;9.80;7.53;;;;;;;;;;5050217;28;20025;-66
2024/02/01 13:10:17;;;;;;;7.95;6.43;;;;;;;;;;5034818;28;20391;-67
2024/02/01 13:13:03;;;;;;;9.40;7.65;;;;;;;;;;5034757;28;20063;-66
2024/02/01 13:15:28;;;;;;;7.88;6.72;;;;;;;;;;5034992;28;20547;-66
2024/02/01 13:17:54;;;;;;;10.40;7.82;;;;;;;;;;5034907;28;20034;-67
2024/02/01 13:20:19;;;;;;;9.85;7.43;;;;;;;;;;5016920;28;20025;-66
2024/02/01 13:22:48;;;;;;;11.73;8.65;;;;;;;;;;5034572;28;20033;-66
2024/02/01 13:25:19;;;;;;;10.45;8.18;;;;;;;;;;5034793;28;20025;-66
2024/02/01 13:27:48;;;;;;;9.07;7.35;;;;;;;;;;5034276;28;20033;-69
2024/02/01 13:30:15;;;;;;;14.18;9.55;;;;;;;;;;5034643;28;20115;-68
2024/02/01 13:32:40;;;;;;;10.02;8.52;;;;;;;;;;5034371;28;20476;-68
2024/02/01 13:35:06;;;;;;;9.63;7.10;;;;;;;;;;5034295;28;20386;-68
2024/02/01 13:37:34;;;;;;;9.52;6.93;;;;;;;;;;5034341;28;20033;-67
2024/02/01 13:40:01;;;;;;;9.27;6.57;;;;;;;;;;5034758;28;20375;-68
2024/02/01 13:42:26;;;;;;;8.68;6.72;;;;;;;;;;5034482;28;20431;-67
2024/02/01 13:44:52;;;;;;;7.72;6.63;;;;;;;;;;5034201;28;20061;-67
2024/02/01 13:47:18;;;;;;;9.18;6.38;;;;;;;;;;5034150;28;20025;-68
2024/02/01 13:49:44;;;;;;;8.55;7.18;;;;;;;;;;5034116;28;20033;-68
2024/02/01 13:52:09;;;;;;;10.18;7.82;;;;;;;;;;5032891;28;20063;-68
2024/02/01 13:54:35;;;;;;;8.93;7.40;;;;;;;;;;5034290;28;20056;-67
2024/02/01 13:57:00;;;;;;;9.57;7.13;;;;;;;;;;5034520;28;20135;-66
2024/02/01 13:59:26;;;;;;;9.77;7.70;;;;;;;;;;5033776;28;20056;-67
2024/02/01 14:01:52;;;;;;;11.27;7.88;;;;;;;;;;5034448;28;20033;-67
2024/02/01 14:04:17;;;;;;;12.00;8.40;;;;;;;;;;5034445;28;20040;-66
2024/02/01 14:06:42;;;;;;;9.15;8.23;;;;;;;;;;5033862;28;20029;-66
2024/02/01 14:09:09;;;;;;;10.43;8.05;;;;;;;;;;5033625;28;20541;-66
2024/02/01 14:11:38;;;;;;;12.50;9.25;;;;;;;;;;5014184;28;20087;-67
2024/02/01 14:14:07;;;;;;;10.75;8.57;;;;;;;;;;5034035;28;20041;-66
2024/02/01 14:16:35;;;;;;;10.27;8.00;;;;;;;;;;5033742;28;20132;-67
2024/02/01 14:19:01;;;;;;;10.52;7.95;;;;;;;;;;5047252;28;20037;-67
2024/02/01 14:21:27;;;;;;;10.57;8.43;;;;;;;;;;5014693;28;20029;-66
2024/02/01 14:23:54;;;;;;;10.55;8.98;;;;;;;;;;5033525;28;20033;-58
2024/02/01 14:26:22;;;;;;;10.75;8.45;;;;;;;;;;5033758;28;20041;-59
2024/02/01 14:28:47;;;;;;;10.25;8.25;;;;;;;;;;5034177;28;20064;-59
2024/02/01 14:31:13;;;;;;;9.70;7.85;;;;;;;;;;5033598;28;20483;-59
2024/02/01 14:33:38;;;;;;;9.77;7.25;;;;;;;;;;5033594;28;20417;-58
2024/02/01 14:36:04;;;;;;;7.35;6.45;;;;;;;;;;5033837;28;20038;-59
2024/02/01 14:38:29;;;;;;;9.55;7.85;;;;;;;;;;5048906;28;20037;-59
2024/02/01 14:40:55;;;;;;;9.35;7.43;;;;;;;;;;5033557;28;20492;-59
2024/02/01 14:43:20;;;;;;;10.02;8.05;;;;;;;;;;5036084;28;20018;-59
2024/02/01 14:45:46;;;;;;;11.23;8.20;;;;;;;;;;5037581;28;20538;-59
2024/02/01 14:48:11;;;;;;;6.90;6.22;;;;;;;;;;5052898;28;20025;-59
2024/02/01 14:50:37;;;;;;;7.88;6.70;;;;;;;;;;5037747;28;20413;-58
2024/02/01 14:53:03;;;;;;;5.95;5.35;;;;;;;;;;5037448;28;20026;-59
2024/02/01 14:55:30;;;;;;;6.55;5.85;;;;;;;;;;5052667;28;20068;-58
2024/02/01 14:57:55;;;;;;;7.90;5.63;;;;;;;;;;5037806;28;20025;-58
2024/02/01 15:00:25;;;;;;;8.98;5.63;;;;;;;;;;5037216;28;20432;-58
2024/02/01 15:02:54;;;;;;;6.93;6.13;;;;;;;;;;5037548;28;20028;-58
2024/02/01 15:05:20;;;;;;;7.05;5.18;;;;;;;;;;5036898;28;20055;-58
2024/02/01 15:07:46;;;;;;;6.95;5.50;;;;;;;;;;5035421;28;20026;-58
2024/02/01 15:10:14;;;;;;;7.63;5.15;;;;;;;;;;5036084;28;20096;-58
2024/02/01 15:12:40;;;;;;;7.53;5.28;;;;;;;;;;5019433;28;20472;-59
2024/02/01 15:15:05;;;;;;;7.88;5.40;;;;;;;;;;5035962;28;20041;-58